Time;durP1;ratioP1;P1;durP2;ratioP2;P2;SDS_P1;SDS_P2;PMS_P1;PMS_P2;Temp;Humidity;BMP_temperature;BMP_pressure;BME280_temperature;BME280_humidity;BME280_pressure;Samples;Min_cycle;Max_cycle;Signal;HPM_P1;HPM_P2
2023/03/08 00:00:09;;;;;;;5.43;2.28;;;;;;;;;;5145388;27;20085;-61
2023/03/08 00:02:35;;;;;;;3.70;2.58;;;;;;;;;;5145101;27;20510;-61
2023/03/08 00:05:02;;;;;;;3.50;1.80;;;;;;;;;;5165020;27;20039;-63
2023/03/08 00:07:29;;;;;;;3.47;2.00;;;;;;;;;;5165763;27;20053;-60
2023/03/08 00:09:55;;;;;;;1.90;1.65;;;;;;;;;;5157281;27;20051;-61
2023/03/08 00:12:21;;;;;;;2.50;1.73;;;;;;;;;;5163732;27;20542;-61
2023/03/08 00:14:48;;;;;;;3.75;1.55;;;;;;;;;;5152910;27;20066;-60
2023/03/08 00:17:15;;;;;;;5.10;1.67;;;;;;;;;;5165413;27;20050;-61
2023/03/08 00:19:41;;;;;;;2.70;1.52;;;;;;;;;;5158246;27;20057;-61
2023/03/08 00:22:08;;;;;;;1.67;1.40;;;;;;;;;;5149501;27;20150;-61
2023/03/08 00:24:34;;;;;;;3.45;1.90;;;;;;;;;;5144598;27;20043;-61
2023/03/08 00:27:01;;;;;;;4.57;1.77;;;;;;;;;;5166409;27;20491;-62
2023/03/08 00:29:27;;;;;;;3.30;1.83;;;;;;;;;;5155097;27;20051;-61
2023/03/08 00:31:54;;;;;;;2.47;1.83;;;;;;;;;;5153721;27;20051;-61
2023/03/08 00:34:20;;;;;;;2.67;1.60;;;;;;;;;;5165614;27;20073;-61
2023/03/08 00:36:46;;;;;;;6.10;1.92;;;;;;;;;;5162502;27;20489;-62
2023/03/08 00:39:15;;;;;;;2.47;1.45;;;;;;;;;;5165868;27;20134;-60
2023/03/08 00:41:41;;;;;;;3.50;1.92;;;;;;;;;;5154095;27;20055;-62
2023/03/08 00:44:08;;;;;;;4.55;1.90;;;;;;;;;;5154821;27;20086;-60
2023/03/08 00:46:34;;;;;;;6.07;1.70;;;;;;;;;;5161012;27;20158;-63
2023/03/08 00:49:03;;;;;;;3.58;1.98;;;;;;;;;;5150402;27;20043;-61
2023/03/08 00:51:29;;;;;;;5.00;1.70;;;;;;;;;;5154978;27;20528;-61
2023/03/08 00:53:55;;;;;;;3.50;1.80;;;;;;;;;;5154116;27;20050;-62
2023/03/08 00:56:22;;;;;;;2.13;1.40;;;;;;;;;;5157851;27;20596;-61
2023/03/08 00:58:48;;;;;;;1.83;1.58;;;;;;;;;;5146067;27;20499;-61
2023/03/08 01:01:16;;;;;;;1.73;1.40;;;;;;;;;;5163252;27;20599;-62
2023/03/08 01:03:42;;;;;;;4.53;1.67;;;;;;;;;;5154583;27;20061;-61
2023/03/08 01:06:10;;;;;;;2.17;1.50;;;;;;;;;;5158533;27;20510;-61
2023/03/08 01:08:38;;;;;;;2.00;1.50;;;;;;;;;;5162238;27;20089;-61
2023/03/08 01:11:05;;;;;;;5.22;1.63;;;;;;;;;;5160868;27;20046;-62
2023/03/08 01:13:32;;;;;;;1.75;1.50;;;;;;;;;;5155782;27;20042;-63
2023/03/08 01:15:59;;;;;;;4.78;1.63;;;;;;;;;;5150879;27;20542;-62
2023/03/08 01:18:25;;;;;;;4.63;1.80;;;;;;;;;;5164814;27;20496;-61
2023/03/08 01:20:59;;;;;;;8.40;2.13;;;;;;;;;;5164695;27;20504;-62
2023/03/08 01:23:25;;;;;;;2.38;2.15;;;;;;;;;;5163581;27;20063;-62
2023/03/08 01:26:18;;;;;;;3.13;1.98;;;;;;;;;;5159946;27;20051;-61
2023/03/08 01:28:44;;;;;;;5.38;2.50;;;;;;;;;;5152495;27;20051;-61
2023/03/08 01:31:15;;;;;;;5.13;2.58;;;;;;;;;;5162858;27;20042;-62
2023/03/08 01:33:42;;;;;;;2.63;1.58;;;;;;;;;;5163165;27;20055;-62
2023/03/08 01:36:10;;;;;;;5.95;2.58;;;;;;;;;;5163463;27;20074;-63
2023/03/08 01:38:36;;;;;;;2.20;1.75;;;;;;;;;;5147981;27;20758;-61
2023/03/08 01:41:05;;;;;;;6.60;2.67;;;;;;;;;;5144803;27;20051;-63
2023/03/08 01:43:36;;;;;;;4.28;2.75;;;;;;;;;;5159412;27;20524;-63
2023/03/08 01:46:06;;;;;;;3.65;2.47;;;;;;;;;;5163872;27;20054;-61
2023/03/08 01:48:34;;;;;;;3.08;2.13;;;;;;;;;;5151098;27;20047;-62
2023/03/08 01:51:02;;;;;;;5.80;2.40;;;;;;;;;;5149593;27;20043;-61
2023/03/08 01:53:28;;;;;;;3.20;2.25;;;;;;;;;;5162756;27;20043;-61
2023/03/08 01:55:55;;;;;;;3.97;2.35;;;;;;;;;;5156158;27;20054;-60
2023/03/08 01:58:22;;;;;;;5.22;2.72;;;;;;;;;;5158196;27;20138;-62
2023/03/08 02:00:48;;;;;;;4.65;2.70;;;;;;;;;;5157826;27;20524;-61
2023/03/08 02:03:15;;;;;;;3.85;2.40;;;;;;;;;;5149146;27;20475;-61
2023/03/08 02:05:42;;;;;;;7.40;2.75;;;;;;;;;;5147381;27;20051;-60
2023/03/08 02:08:08;;;;;;;4.55;2.90;;;;;;;;;;5155032;27;20130;-63
2023/03/08 02:10:35;;;;;;;6.15;2.90;;;;;;;;;;5162200;27;20115;-63
2023/03/08 02:13:03;;;;;;;6.13;3.47;;;;;;;;;;5163407;27;20531;-62
2023/03/08 02:15:29;;;;;;;3.67;2.60;;;;;;;;;;5148369;27;20479;-62
2023/03/08 02:17:56;;;;;;;5.43;3.55;;;;;;;;;;5143669;27;20047;-61
2023/03/08 02:20:34;;;;;;;5.47;3.45;;;;;;;;;;5124737;27;20135;-61
2023/03/08 02:23:06;;;;;;;4.75;3.75;;;;;;;;;;5147404;27;20589;-62
2023/03/08 02:25:33;;;;;;;9.20;4.28;;;;;;;;;;5144086;27;20051;-61
2023/03/08 02:27:59;;;;;;;7.20;4.50;;;;;;;;;;5161915;27;20066;-61
2023/03/08 02:30:28;;;;;;;10.40;4.70;;;;;;;;;;5153228;27;20039;-63
2023/03/08 02:32:55;;;;;;;5.80;4.03;;;;;;;;;;5157193;27;20051;-61
2023/03/08 02:35:21;;;;;;;6.78;4.20;;;;;;;;;;5163417;27;20606;-62
2023/03/08 02:37:48;;;;;;;6.63;4.10;;;;;;;;;;5159244;27;20131;-63
2023/03/08 02:40:14;;;;;;;6.88;4.43;;;;;;;;;;5146301;27;20636;-61
2023/03/08 02:42:40;;;;;;;6.80;5.05;;;;;;;;;;5160421;27;20043;-62
2023/03/08 02:45:07;;;;;;;6.90;5.07;;;;;;;;;;5163156;27;20057;-62
2023/03/08 02:47:34;;;;;;;11.80;5.82;;;;;;;;;;5162424;27;20053;-62
2023/03/08 02:50:00;;;;;;;7.57;5.53;;;;;;;;;;5157748;27;20508;-62
2023/03/08 02:52:27;;;;;;;6.00;5.07;;;;;;;;;;5151711;27;20401;-63
2023/03/08 02:54:53;;;;;;;7.78;5.75;;;;;;;;;;5146263;27;20086;-62
2023/03/08 02:57:20;;;;;;;14.27;7.47;;;;;;;;;;5164436;27;20099;-61
2023/03/08 02:59:46;;;;;;;13.68;8.25;;;;;;;;;;5161805;27;20154;-61
2023/03/08 03:02:13;;;;;;;14.07;8.30;;;;;;;;;;5160247;27;20051;-62
2023/03/08 03:04:39;;;;;;;15.88;8.25;;;;;;;;;;5162967;27;20046;-62
2023/03/08 03:07:06;;;;;;;10.20;7.50;;;;;;;;;;5163405;27;20516;-61
2023/03/08 03:09:33;;;;;;;10.20;7.78;;;;;;;;;;5157308;27;20059;-63
2023/03/08 03:12:00;;;;;;;9.05;7.97;;;;;;;;;;5167030;27;20051;-61
2023/03/08 03:14:27;;;;;;;9.05;7.10;;;;;;;;;;5167272;27;20050;-61
2023/03/08 03:16:53;;;;;;;28.58;8.25;;;;;;;;;;5168167;27;20054;-60
2023/03/08 03:19:19;;;;;;;10.90;7.88;;;;;;;;;;5151217;27;20497;-62
2023/03/08 03:21:46;;;;;;;9.73;7.45;;;;;;;;;;5162323;27;20077;-62
2023/03/08 03:24:13;;;;;;;9.57;7.60;;;;;;;;;;5160526;27;20043;-60
2023/03/08 03:26:39;;;;;;;9.40;8.25;;;;;;;;;;5156798;27;20501;-61
2023/03/08 03:29:05;;;;;;;12.85;7.80;;;;;;;;;;5160055;27;20066;-61
2023/03/08 03:31:33;;;;;;;8.75;7.35;;;;;;;;;;5147573;27;20043;-63
2023/03/08 03:33:59;;;;;;;8.85;7.03;;;;;;;;;;5156917;27;20537;-61
2023/03/08 03:36:26;;;;;;;8.00;7.20;;;;;;;;;;5152302;27;20051;-61
2023/03/08 03:38:52;;;;;;;9.05;7.80;;;;;;;;;;5150863;27;20166;-61
2023/03/08 03:41:19;;;;;;;9.60;7.60;;;;;;;;;;5158725;27;20616;-61
2023/03/08 03:43:46;;;;;;;10.57;8.73;;;;;;;;;;5164496;27;20055;-62
2023/03/08 03:46:14;;;;;;;9.85;8.63;;;;;;;;;;5158836;27;20050;-61
2023/03/08 03:48:40;;;;;;;12.93;8.40;;;;;;;;;;5164548;27;20134;-60
2023/03/08 03:51:09;;;;;;;9.13;8.02;;;;;;;;;;5164656;27;20527;-60
2023/03/08 03:53:35;;;;;;;11.13;8.45;;;;;;;;;;5164494;27;20086;-62
2023/03/08 03:56:06;;;;;;;11.82;8.48;;;;;;;;;;5157988;27;20058;-62
2023/03/08 03:58:33;;;;;;;10.40;8.65;;;;;;;;;;5157127;27;20504;-60
2023/03/08 04:00:59;;;;;;;9.50;7.93;;;;;;;;;;5155000;27;20054;-60
2023/03/08 04:03:25;;;;;;;10.80;8.77;;;;;;;;;;5157548;27;20088;-61
2023/03/08 04:05:52;;;;;;;10.82;9.18;;;;;;;;;;5166307;27;20173;-61
2023/03/08 04:08:18;;;;;;;12.57;9.10;;;;;;;;;;5162473;27;20516;-61
2023/03/08 04:10:45;;;;;;;14.23;9.82;;;;;;;;;;5153933;27;20467;-63
2023/03/08 04:13:11;;;;;;;11.15;8.80;;;;;;;;;;5158008;27;20523;-60
2023/03/08 04:15:37;;;;;;;12.15;8.88;;;;;;;;;;5149079;27;20057;-62
2023/03/08 04:18:04;;;;;;;10.40;8.48;;;;;;;;;;5166091;27;20054;-62
2023/03/08 04:20:30;;;;;;;12.48;9.95;;;;;;;;;;5164596;27;20047;-61
2023/03/08 04:22:57;;;;;;;12.52;9.20;;;;;;;;;;5160782;27;20054;-61
2023/03/08 04:25:23;;;;;;;12.88;9.20;;;;;;;;;;5156398;27;20051;-62
2023/03/08 04:27:49;;;;;;;17.58;10.80;;;;;;;;;;5157882;27;20053;-61
2023/03/08 04:30:16;;;;;;;12.23;9.82;;;;;;;;;;5163789;27;20765;-61
2023/03/08 04:32:42;;;;;;;18.40;11.10;;;;;;;;;;5153569;27;20177;-62
2023/03/08 04:35:09;;;;;;;18.95;11.40;;;;;;;;;;5165865;27;20055;-62
2023/03/08 04:37:36;;;;;;;17.33;11.15;;;;;;;;;;5163684;27;20061;-61
2023/03/08 04:40:05;;;;;;;25.85;14.00;;;;;;;;;;5164085;27;20047;-61
2023/03/08 04:42:32;;;;;;;21.75;14.10;;;;;;;;;;5162455;27;20134;-63
2023/03/08 04:44:58;;;;;;;24.25;14.80;;;;;;;;;;5166228;27;20066;-60
2023/03/08 04:47:25;;;;;;;26.98;14.75;;;;;;;;;;5158121;27;20059;-60
2023/03/08 04:49:51;;;;;;;24.17;14.60;;;;;;;;;;5150224;27;20391;-61
2023/03/08 04:52:17;;;;;;;27.52;16.60;;;;;;;;;;5163804;27;20051;-62
2023/03/08 04:54:44;;;;;;;28.00;16.20;;;;;;;;;;5152434;27;20130;-61
2023/03/08 04:57:10;;;;;;;40.28;15.63;;;;;;;;;;5164384;27;20085;-61
2023/03/08 04:59:37;;;;;;;24.98;15.05;;;;;;;;;;5164884;27;20061;-60
2023/03/08 05:02:03;;;;;;;42.13;16.63;;;;;;;;;;5163908;27;20061;-61
2023/03/08 05:04:29;;;;;;;27.75;16.38;;;;;;;;;;5160855;27;20065;-61
2023/03/08 05:06:56;;;;;;;31.25;16.70;;;;;;;;;;5144442;27;20062;-61
2023/03/08 05:09:22;;;;;;;40.75;18.30;;;;;;;;;;5152100;27;20057;-60
2023/03/08 05:11:48;;;;;;;37.13;18.00;;;;;;;;;;5162536;27;20141;-62
2023/03/08 05:14:15;;;;;;;40.88;18.95;;;;;;;;;;5154304;27;20047;-61
2023/03/08 05:16:41;;;;;;;38.03;19.40;;;;;;;;;;5164188;27;20054;-60
2023/03/08 05:19:07;;;;;;;69.25;21.05;;;;;;;;;;5165214;27;20155;-62
2023/03/08 05:21:34;;;;;;;42.50;19.60;;;;;;;;;;5164571;27;20096;-61
2023/03/08 05:24:00;;;;;;;42.53;20.75;;;;;;;;;;5162122;27;20051;-61
2023/03/08 05:26:27;;;;;;;38.35;21.17;;;;;;;;;;5156643;27;20595;-62
2023/03/08 05:28:54;;;;;;;45.78;21.00;;;;;;;;;;5156553;27;20137;-61
2023/03/08 05:31:20;;;;;;;37.30;21.38;;;;;;;;;;5153636;27;20081;-61
2023/03/08 05:33:49;;;;;;;45.15;21.15;;;;;;;;;;5147049;27;20043;-61
2023/03/08 05:36:16;;;;;;;41.20;20.35;;;;;;;;;;5132748;27;20063;-61
2023/03/08 05:38:43;;;;;;;71.55;23.42;;;;;;;;;;5159990;27;20081;-62
2023/03/08 05:41:11;;;;;;;66.72;27.92;;;;;;;;;;5157649;27;20701;-61
2023/03/08 05:43:37;;;;;;;34.83;20.40;;;;;;;;;;5128674;27;20047;-61
2023/03/08 05:46:05;;;;;;;37.75;22.33;;;;;;;;;;5159789;27;20058;-61
2023/03/08 05:48:33;;;;;;;33.47;20.83;;;;;;;;;;5158122;27;20046;-63
2023/03/08 05:51:03;;;;;;;34.20;21.55;;;;;;;;;;5157583;27;20481;-60
2023/03/08 05:53:29;;;;;;;38.90;19.02;;;;;;;;;;5164901;27;20516;-61
2023/03/08 05:55:56;;;;;;;51.13;21.02;;;;;;;;;;5152421;27;20053;-62
2023/03/08 05:58:22;;;;;;;35.15;21.40;;;;;;;;;;5150051;27;20574;-61
2023/03/08 06:00:48;;;;;;;32.67;19.92;;;;;;;;;;5157873;27;20508;-61
2023/03/08 06:03:15;;;;;;;38.50;21.38;;;;;;;;;;5153278;27;20055;-62
2023/03/08 06:05:41;;;;;;;42.25;21.10;;;;;;;;;;5149541;27;20573;-60
2023/03/08 06:08:07;;;;;;;44.15;20.13;;;;;;;;;;5164392;27;20512;-60
2023/03/08 06:10:34;;;;;;;47.10;20.27;;;;;;;;;;5161952;27;20042;-62
2023/03/08 06:13:02;;;;;;;37.50;18.95;;;;;;;;;;5161205;27;20169;-63
2023/03/08 06:15:28;;;;;;;77.43;45.15;;;;;;;;;;5143911;27;20061;-61
2023/03/08 06:17:54;;;;;;;43.17;23.95;;;;;;;;;;5164417;27;20116;-60
2023/03/08 06:20:21;;;;;;;35.20;20.38;;;;;;;;;;5162750;27;20050;-61
2023/03/08 06:22:47;;;;;;;39.38;20.55;;;;;;;;;;5163735;27;20054;-61
2023/03/08 06:25:14;;;;;;;38.25;21.05;;;;;;;;;;5160539;27;20080;-61
2023/03/08 06:27:40;;;;;;;39.63;21.70;;;;;;;;;;5164416;27;20184;-60
2023/03/08 06:30:07;;;;;;;42.15;21.33;;;;;;;;;;5161642;27;20050;-61
2023/03/08 06:32:36;;;;;;;40.35;22.65;;;;;;;;;;5138519;27;20398;-60
2023/03/08 06:35:03;;;;;;;37.35;20.98;;;;;;;;;;5147975;27;20097;-61
2023/03/08 06:37:31;;;;;;;43.65;22.85;;;;;;;;;;5152542;27;20515;-62
2023/03/08 06:39:57;;;;;;;46.25;24.95;;;;;;;;;;5152699;27;20130;-61
2023/03/08 06:42:24;;;;;;;48.42;24.17;;;;;;;;;;5151395;27;20055;-61
2023/03/08 06:45:06;;;;;;;40.17;23.20;;;;;;;;;;5133280;27;20047;-60
2023/03/08 06:47:32;;;;;;;43.42;23.45;;;;;;;;;;5162590;27;20062;-63
2023/03/08 06:49:59;;;;;;;39.45;21.83;;;;;;;;;;5155656;27;20135;-60
2023/03/08 06:52:25;;;;;;;43.95;22.88;;;;;;;;;;5151641;27;20622;-62
2023/03/08 06:54:51;;;;;;;50.33;22.25;;;;;;;;;;5154671;27;20439;-61
2023/03/08 06:57:19;;;;;;;40.70;21.48;;;;;;;;;;5165214;27;20131;-60
2023/03/08 06:59:45;;;;;;;45.55;24.20;;;;;;;;;;5155420;27;20101;-61
2023/03/08 07:02:12;;;;;;;43.25;23.58;;;;;;;;;;5162245;27;20081;-60
2023/03/08 07:04:38;;;;;;;45.70;22.65;;;;;;;;;;5137809;27;20055;-61
2023/03/08 07:07:06;;;;;;;42.28;22.92;;;;;;;;;;5159596;27;20521;-60
2023/03/08 07:09:33;;;;;;;32.95;20.23;;;;;;;;;;5155718;27;20572;-60
2023/03/08 07:11:59;;;;;;;36.88;21.10;;;;;;;;;;5160786;27;20496;-60
2023/03/08 07:14:25;;;;;;;34.55;21.27;;;;;;;;;;5155510;27;20059;-59
2023/03/08 07:16:52;;;;;;;33.78;19.25;;;;;;;;;;5149794;27;20054;-60
2023/03/08 07:19:18;;;;;;;35.88;20.05;;;;;;;;;;5165963;27;20561;-59
2023/03/08 07:21:44;;;;;;;34.90;20.90;;;;;;;;;;5157724;27;20432;-61
2023/03/08 07:24:11;;;;;;;35.13;21.85;;;;;;;;;;5153448;27;20055;-59
2023/03/08 07:26:38;;;;;;;41.38;22.88;;;;;;;;;;5161699;27;20047;-59
2023/03/08 07:29:04;;;;;;;41.50;22.27;;;;;;;;;;5165837;27;20054;-60
2023/03/08 07:31:34;;;;;;;38.08;21.45;;;;;;;;;;5154985;27;20043;-59
2023/03/08 07:34:04;;;;;;;44.92;22.65;;;;;;;;;;5148797;27;20054;-59
2023/03/08 07:36:32;;;;;;;37.25;21.58;;;;;;;;;;5145772;27;20585;-60
2023/03/08 07:38:58;;;;;;;37.83;21.38;;;;;;;;;;5145806;27;20055;-59
2023/03/08 07:41:29;;;;;;;39.03;21.10;;;;;;;;;;5154167;27;20601;-59
2023/03/08 07:43:55;;;;;;;38.53;22.20;;;;;;;;;;5146154;27;20047;-59
2023/03/08 07:46:22;;;;;;;38.60;20.38;;;;;;;;;;5152210;27;20511;-59
2023/03/08 07:48:50;;;;;;;34.38;20.67;;;;;;;;;;5163744;27;20046;-59
2023/03/08 07:51:20;;;;;;;42.38;23.52;;;;;;;;;;5158557;27;20047;-60
2023/03/08 07:53:46;;;;;;;43.17;22.55;;;;;;;;;;5159531;27;20051;-59
2023/03/08 07:56:13;;;;;;;39.15;20.90;;;;;;;;;;5149613;27;20509;-59
2023/03/08 07:58:39;;;;;;;39.80;23.15;;;;;;;;;;5152176;27;20138;-60
2023/03/08 08:01:07;;;;;;;45.50;24.00;;;;;;;;;;5159767;27;20579;-60
2023/03/08 08:03:34;;;;;;;53.13;26.10;;;;;;;;;;5146752;27;20057;-60
2023/03/08 08:06:01;;;;;;;50.38;25.33;;;;;;;;;;5155926;27;20058;-59
2023/03/08 08:08:28;;;;;;;45.90;24.90;;;;;;;;;;5159202;27;20058;-58
2023/03/08 08:10:54;;;;;;;54.53;24.60;;;;;;;;;;5155140;27;20184;-59
2023/03/08 08:13:21;;;;;;;52.38;26.27;;;;;;;;;;5146640;27;20129;-59
2023/03/08 08:15:55;;;;;;;68.53;26.92;;;;;;;;;;5136208;27;20054;-58
2023/03/08 08:18:22;;;;;;;55.53;26.20;;;;;;;;;;5164998;27;20402;-60
2023/03/08 08:20:48;;;;;;;53.65;25.95;;;;;;;;;;5162470;27;20054;-59
2023/03/08 08:23:14;;;;;;;48.53;25.88;;;;;;;;;;5165255;27;20046;-59
2023/03/08 08:25:42;;;;;;;54.22;26.70;;;;;;;;;;5155636;27;20088;-59
2023/03/08 08:28:08;;;;;;;46.03;25.73;;;;;;;;;;5148699;27;20062;-59
2023/03/08 08:30:35;;;;;;;46.88;23.83;;;;;;;;;;5149558;27;20051;-59
2023/03/08 08:33:02;;;;;;;46.85;23.92;;;;;;;;;;5144511;27;20059;-59
2023/03/08 08:35:28;;;;;;;51.25;24.25;;;;;;;;;;5151382;27;20042;-59
2023/03/08 08:38:08;;;;;;;47.70;24.88;;;;;;;;;;5165012;27;20507;-59
2023/03/08 08:40:35;;;;;;;48.65;24.02;;;;;;;;;;5159992;27;20272;-59
2023/03/08 08:43:02;;;;;;;44.88;24.73;;;;;;;;;;5145380;27;20051;-58
2023/03/08 08:45:28;;;;;;;44.08;22.48;;;;;;;;;;5149819;27;20057;-60
2023/03/08 08:47:54;;;;;;;46.42;24.17;;;;;;;;;;5165505;27;20539;-59
2023/03/08 08:50:21;;;;;;;44.47;22.98;;;;;;;;;;5150016;27;20054;-59
2023/03/08 08:52:47;;;;;;;49.50;22.65;;;;;;;;;;5153508;27;20046;-59
2023/03/08 08:55:13;;;;;;;47.95;23.05;;;;;;;;;;5161059;27;20456;-59
2023/03/08 08:57:40;;;;;;;51.38;23.45;;;;;;;;;;5143807;27;20054;-60
2023/03/08 09:00:08;;;;;;;43.67;22.05;;;;;;;;;;5156995;27;20039;-58
2023/03/08 09:02:35;;;;;;;51.70;23.23;;;;;;;;;;5161888;27;20047;-60
2023/03/08 09:05:01;;;;;;;45.60;23.90;;;;;;;;;;5163682;27;20095;-59
2023/03/08 09:07:27;;;;;;;45.85;22.10;;;;;;;;;;5163030;27;20061;-58
2023/03/08 09:09:54;;;;;;;45.60;22.02;;;;;;;;;;5153112;27;20051;-59
2023/03/08 09:12:20;;;;;;;45.50;21.55;;;;;;;;;;5149433;27;20054;-58
2023/03/08 09:14:47;;;;;;;47.30;23.50;;;;;;;;;;5154775;27;20445;-59
2023/03/08 09:17:13;;;;;;;47.70;24.50;;;;;;;;;;5152454;27;20042;-59
2023/03/08 09:19:39;;;;;;;48.97;21.55;;;;;;;;;;5151442;27;20055;-59
2023/03/08 09:22:05;;;;;;;45.30;23.90;;;;;;;;;;5157488;27;20054;-59
2023/03/08 09:24:32;;;;;;;46.70;21.85;;;;;;;;;;5156420;27;20054;-60
2023/03/08 09:26:59;;;;;;;46.15;22.70;;;;;;;;;;5150943;27;20050;-59
2023/03/08 09:29:26;;;;;;;41.85;22.85;;;;;;;;;;5158795;27;20384;-59
2023/03/08 09:31:52;;;;;;;44.55;22.30;;;;;;;;;;5145271;27;20046;-60
2023/03/08 09:34:19;;;;;;;47.08;23.23;;;;;;;;;;5151243;27;20090;-60
2023/03/08 09:36:45;;;;;;;42.42;21.10;;;;;;;;;;5147610;27;20050;-60
2023/03/08 09:39:12;;;;;;;42.95;22.92;;;;;;;;;;5149510;27;20354;-60
2023/03/08 09:41:47;;;;;;;45.65;23.35;;;;;;;;;;5161920;27;20066;-59
2023/03/08 09:44:16;;;;;;;44.30;22.13;;;;;;;;;;5154685;27;20053;-59
2023/03/08 09:47:10;;;;;;;44.38;21.52;;;;;;;;;;5151609;27;20057;-58
2023/03/08 09:49:37;;;;;;;39.45;21.05;;;;;;;;;;5108868;27;20055;-59
2023/03/08 09:52:16;;;;;;;48.33;20.85;;;;;;;;;;5143906;27;20568;-59
2023/03/08 09:54:43;;;;;;;44.15;22.40;;;;;;;;;;5143924;27;20057;-60
2023/03/08 09:57:13;;;;;;;40.33;20.38;;;;;;;;;;5149382;27;20046;-60
2023/03/08 09:59:52;;;;;;;42.72;22.00;;;;;;;;;;5153532;27;20047;-59
2023/03/08 10:02:19;;;;;;;41.28;21.25;;;;;;;;;;5151039;27;20043;-59
2023/03/08 10:05:06;;;;;;;38.60;19.77;;;;;;;;;;5148316;27;20520;-60
2023/03/08 10:07:54;;;;;;;40.60;19.52;;;;;;;;;;5161939;27;20058;-61
2023/03/08 10:10:26;;;;;;;36.65;19.13;;;;;;;;;;5161828;27;20560;-61
2023/03/08 10:13:12;;;;;;;38.17;18.52;;;;;;;;;;5148923;27;20051;-55
2023/03/08 10:15:43;;;;;;;41.75;18.73;;;;;;;;;;5154314;27;20069;-60
2023/03/08 10:18:14;;;;;;;38.10;19.88;;;;;;;;;;5145748;27;20056;-59
2023/03/08 10:20:41;;;;;;;37.13;19.63;;;;;;;;;;5145357;27;20578;-60
2023/03/08 10:23:12;;;;;;;40.83;19.50;;;;;;;;;;5158835;27;20055;-60
2023/03/08 10:25:39;;;;;;;35.42;19.00;;;;;;;;;;5146139;27;20156;-60
2023/03/08 10:28:10;;;;;;;36.05;17.13;;;;;;;;;;5156676;27;20531;-59
2023/03/08 10:30:40;;;;;;;35.50;18.58;;;;;;;;;;5137286;27;20579;-61
2023/03/08 10:33:10;;;;;;;35.92;17.27;;;;;;;;;;5164402;27;20127;-60
2023/03/08 10:36:05;;;;;;;35.58;19.02;;;;;;;;;;5147948;27;20511;-59
2023/03/08 10:38:33;;;;;;;36.33;18.65;;;;;;;;;;5143470;27;20053;-61
2023/03/08 10:41:01;;;;;;;40.22;19.08;;;;;;;;;;5165933;27;20046;-60
2023/03/08 10:43:33;;;;;;;32.17;16.60;;;;;;;;;;5161794;27;20051;-60
2023/03/08 10:46:02;;;;;;;37.50;18.98;;;;;;;;;;5160416;27;20134;-61
2023/03/08 10:48:28;;;;;;;30.25;16.70;;;;;;;;;;5151883;27;20097;-60
2023/03/08 10:51:02;;;;;;;36.78;17.88;;;;;;;;;;5148649;27;20561;-60
2023/03/08 10:53:29;;;;;;;33.88;15.55;;;;;;;;;;5149039;27;20144;-61
2023/03/08 10:55:57;;;;;;;32.03;17.52;;;;;;;;;;5152683;27;20058;-59
2023/03/08 10:58:34;;;;;;;35.40;17.90;;;;;;;;;;5146742;27;20463;-61
2023/03/08 11:01:03;;;;;;;31.23;14.98;;;;;;;;;;5149971;27;20047;-60
2023/03/08 11:03:29;;;;;;;34.53;15.68;;;;;;;;;;5161329;27;20496;-60
2023/03/08 11:06:00;;;;;;;35.15;17.40;;;;;;;;;;5152236;27;20054;-60
2023/03/08 11:08:31;;;;;;;33.65;17.58;;;;;;;;;;5145582;27;20052;-59
2023/03/08 11:10:59;;;;;;;29.83;15.60;;;;;;;;;;5158157;27;20051;-60
2023/03/08 11:13:30;;;;;;;31.55;16.17;;;;;;;;;;5147951;27;20078;-60
2023/03/08 11:16:05;;;;;;;28.40;14.55;;;;;;;;;;5163401;27;20050;-60
2023/03/08 11:18:51;;;;;;;25.58;14.10;;;;;;;;;;5164567;27;20046;-61
2023/03/08 11:21:38;;;;;;;28.20;14.30;;;;;;;;;;5150514;27;20055;-63
2023/03/08 11:24:10;;;;;;;32.50;14.13;;;;;;;;;;5133126;27;20143;-60
2023/03/08 11:26:57;;;;;;;30.08;14.18;;;;;;;;;;5162955;27;20051;-61
2023/03/08 11:29:24;;;;;;;29.02;13.57;;;;;;;;;;5149980;27;20059;-59
2023/03/08 11:31:53;;;;;;;28.55;13.18;;;;;;;;;;5153953;27;20053;-60
2023/03/08 11:34:27;;;;;;;28.17;13.98;;;;;;;;;;5152035;27;20084;-59
2023/03/08 11:37:04;;;;;;;23.42;13.25;;;;;;;;;;5156158;27;20055;-60
2023/03/08 11:39:32;;;;;;;23.83;11.90;;;;;;;;;;5157184;27;20062;-60
2023/03/08 11:42:04;;;;;;;27.27;13.82;;;;;;;;;;5149343;27;20055;-60
2023/03/08 11:44:53;;;;;;;25.60;12.35;;;;;;;;;;5153681;27;20089;-60
2023/03/08 11:47:23;;;;;;;24.33;12.25;;;;;;;;;;5162631;27;20077;-60
2023/03/08 11:49:52;;;;;;;25.88;12.60;;;;;;;;;;5164826;27;20049;-60
2023/03/08 11:52:21;;;;;;;27.45;13.32;;;;;;;;;;5152469;27;20190;-60
2023/03/08 11:55:07;;;;;;;22.60;13.07;;;;;;;;;;5150376;27;20054;-61
2023/03/08 11:57:35;;;;;;;27.17;13.60;;;;;;;;;;5149769;27;20147;-60
2023/03/08 12:00:11;;;;;;;22.95;13.20;;;;;;;;;;5156709;27;20046;-61
2023/03/08 12:02:40;;;;;;;27.65;14.25;;;;;;;;;;5150255;27;20051;-61
2023/03/08 12:05:23;;;;;;;27.98;12.82;;;;;;;;;;5150870;27;20043;-60
2023/03/08 12:07:54;;;;;;;28.52;12.88;;;;;;;;;;5163782;27;20057;-60
2023/03/08 12:10:22;;;;;;;25.73;13.25;;;;;;;;;;5154937;27;20047;-60
2023/03/08 12:12:52;;;;;;;29.05;13.35;;;;;;;;;;5148912;27;20127;-60
2023/03/08 12:15:27;;;;;;;32.67;15.65;;;;;;;;;;5159450;27;20134;-59
2023/03/08 12:18:19;;;;;;;31.35;14.57;;;;;;;;;;5157439;27;20047;-61
2023/03/08 12:20:47;;;;;;;26.92;14.05;;;;;;;;;;5152828;27;20562;-59
2023/03/08 12:23:32;;;;;;;29.58;13.68;;;;;;;;;;5163730;27;20090;-60
2023/03/08 12:26:08;;;;;;;30.00;13.65;;;;;;;;;;5163302;27;20074;-60
2023/03/08 12:28:34;;;;;;;;;;;;;;;;;;5156330;27;20051;-60
2023/03/08 12:31:00;;;;;;;;;;;;;;;;;;5152094;27;46090;-59
2023/03/08 12:33:31;;;;;;;26.52;11.48;;;;;;;;;;5161408;27;44670;-59
2023/03/08 12:36:01;;;;;;;33.05;15.98;;;;;;;;;;5156717;27;20517;-60
2023/03/08 12:38:35;;;;;;;25.83;13.10;;;;;;;;;;5152763;27;20456;-59
2023/03/08 12:41:02;;;;;;;26.20;12.40;;;;;;;;;;5147470;27;20085;-60
2023/03/08 12:43:30;;;;;;;25.42;12.05;;;;;;;;;;5145425;27;20054;-59
2023/03/08 12:45:59;;;;;;;33.92;13.40;;;;;;;;;;5155180;27;20043;-59
2023/03/08 12:48:30;;;;;;;28.70;12.18;;;;;;;;;;5147820;27;20404;-60
2023/03/08 12:51:17;;;;;;;25.38;13.13;;;;;;;;;;5152787;27;20748;-59
2023/03/08 12:53:49;;;;;;;30.23;12.88;;;;;;;;;;5151217;27;20134;-59
2023/03/08 12:56:15;;;;;;;25.20;12.63;;;;;;;;;;5144010;27;20434;-59
2023/03/08 12:58:50;;;;;;;29.27;14.27;;;;;;;;;;5152960;27;20130;-60
2023/03/08 13:01:33;;;;;;;19.65;11.68;;;;;;;;;;5153204;27;20047;-59
2023/03/08 13:04:00;;;;;;;24.65;12.77;;;;;;;;;;5152997;27;20085;-61
2023/03/08 13:06:29;;;;;;;27.83;14.13;;;;;;;;;;5153828;27;20074;-59
2023/03/08 13:09:12;;;;;;;24.98;13.48;;;;;;;;;;5160572;27;20051;-59
2023/03/08 13:11:59;;;;;;;28.70;13.98;;;;;;;;;;5151653;27;20055;-61
2023/03/08 13:14:34;;;;;;;24.58;13.00;;;;;;;;;;5150989;27;20537;-59
2023/03/08 13:17:01;;;;;;;29.52;14.05;;;;;;;;;;5154509;27;20051;-60
2023/03/08 13:19:29;;;;;;;27.73;13.13;;;;;;;;;;5162525;27;20133;-60
2023/03/08 13:21:55;;;;;;;25.05;13.27;;;;;;;;;;5150615;27;20496;-60
2023/03/08 13:24:40;;;;;;;25.88;14.73;;;;;;;;;;5154227;27;20111;-60
2023/03/08 13:27:20;;;;;;;24.00;13.40;;;;;;;;;;5148429;27;20054;-60
2023/03/08 13:29:47;;;;;;;27.63;14.07;;;;;;;;;;5140881;27;20084;-60
2023/03/08 13:32:18;;;;;;;26.25;13.27;;;;;;;;;;5150613;27;20055;-59
2023/03/08 13:34:49;;;;;;;33.20;14.90;;;;;;;;;;5144556;27;20500;-59
2023/03/08 13:37:20;;;;;;;27.02;13.75;;;;;;;;;;5152469;27;20050;-59
2023/03/08 13:39:53;;;;;;;35.42;15.10;;;;;;;;;;5155862;27;20447;-59
2023/03/08 13:42:23;;;;;;;29.55;14.88;;;;;;;;;;5156727;27;20054;-58
2023/03/08 13:45:03;;;;;;;29.77;15.55;;;;;;;;;;5162447;27;20047;-59
2023/03/08 13:47:32;;;;;;;32.67;14.93;;;;;;;;;;5153154;27;20046;-58
2023/03/08 13:49:58;;;;;;;31.58;15.65;;;;;;;;;;5143493;27;20058;-58
2023/03/08 13:52:28;;;;;;;31.30;15.80;;;;;;;;;;5152633;27;20053;-58
2023/03/08 13:54:55;;;;;;;30.48;16.05;;;;;;;;;;5147965;27;20081;-58
2023/03/08 13:57:24;;;;;;;32.65;16.08;;;;;;;;;;5159450;27;20097;-58
2023/03/08 13:59:54;;;;;;;30.05;15.77;;;;;;;;;;5143024;27;20547;-60
2023/03/08 14:02:23;;;;;;;31.00;15.85;;;;;;;;;;5151357;27;20116;-59
2023/03/08 14:04:49;;;;;;;31.17;16.42;;;;;;;;;;5141720;27;20525;-59
2023/03/08 14:07:23;;;;;;;31.00;14.93;;;;;;;;;;5160858;27;20495;-59
2023/03/08 14:09:49;;;;;;;28.20;15.52;;;;;;;;;;5148923;27;20496;-59
2023/03/08 14:12:18;;;;;;;35.22;17.67;;;;;;;;;;5151520;27;20511;-59
2023/03/08 14:14:52;;;;;;;29.98;15.95;;;;;;;;;;5147216;27;20052;-59
2023/03/08 14:17:21;;;;;;;32.03;17.02;;;;;;;;;;5156422;27;20050;-60
2023/03/08 14:19:52;;;;;;;30.05;15.73;;;;;;;;;;5146166;27;20508;-58
2023/03/08 14:22:18;;;;;;;32.83;16.05;;;;;;;;;;5147700;27;20055;-58
2023/03/08 14:25:03;;;;;;;30.70;14.97;;;;;;;;;;5142978;27;20063;-59
2023/03/08 14:27:40;;;;;;;30.90;14.60;;;;;;;;;;5157597;27;20113;-58
2023/03/08 14:30:16;;;;;;;30.77;15.25;;;;;;;;;;5152713;27;20527;-59
2023/03/08 14:32:55;;;;;;;27.75;14.95;;;;;;;;;;5149882;27;20067;-59